sensor_id;sensor_type;location;lat;lon;timestamp;temperature;humidity
5200;DHT22;2619;47.868;11.892;2023-05-14T00:00:42;11.20;99.90
5200;DHT22;2619;47.868;11.892;2023-05-14T00:03:08;11.20;99.90
5200;DHT22;2619;47.868;11.892;2023-05-14T00:05:33;11.20;99.90
5200;DHT22;2619;47.868;11.892;2023-05-14T00:07:59;11.20;99.90
5200;DHT22;2619;47.868;11.892;2023-05-14T00:10:26;11.20;99.90
5200;DHT22;2619;47.868;11.892;2023-05-14T00:12:52;11.20;99.90
5200;DHT22;2619;47.868;11.892;2023-05-14T00:15:18;11.10;99.90
5200;DHT22;2619;47.868;11.892;2023-05-14T00:17:43;11.10;99.90
5200;DHT22;2619;47.868;11.892;2023-05-14T00:20:09;11.10;99.90
5200;DHT22;2619;47.868;11.892;2023-05-14T00:22:36;11.10;99.90
5200;DHT22;2619;47.868;11.892;2023-05-14T00:25:02;11.00;99.90
5200;DHT22;2619;47.868;11.892;2023-05-14T00:27:28;11.10;99.90
5200;DHT22;2619;47.868;11.892;2023-05-14T00:29:54;11.10;99.90
5200;DHT22;2619;47.868;11.892;2023-05-14T00:32:20;11.10;99.90
5200;DHT22;2619;47.868;11.892;2023-05-14T00:34:45;11.10;99.90
5200;DHT22;2619;47.868;11.892;2023-05-14T00:37:11;11.20;99.90
5200;DHT22;2619;47.868;11.892;2023-05-14T00:39:36;11.20;99.90
5200;DHT22;2619;47.868;11.892;2023-05-14T00:42:02;11.20;99.90
5200;DHT22;2619;47.868;11.892;2023-05-14T00:44:28;11.30;99.90
5200;DHT22;2619;47.868;11.892;2023-05-14T00:46:53;11.20;99.90
5200;DHT22;2619;47.868;11.892;2023-05-14T00:49:19;11.20;99.90
5200;DHT22;2619;47.868;11.892;2023-05-14T00:51:45;11.20;99.90
5200;DHT22;2619;47.868;11.892;2023-05-14T00:54:13;11.10;99.90
5200;DHT22;2619;47.868;11.892;2023-05-14T00:56:42;11.10;99.90
5200;DHT22;2619;47.868;11.892;2023-05-14T00:59:07;11.00;99.90
5200;DHT22;2619;47.868;11.892;2023-05-14T01:01:33;11.10;99.90
5200;DHT22;2619;47.868;11.892;2023-05-14T01:03:59;11.10;99.90
5200;DHT22;2619;47.868;11.892;2023-05-14T01:12:35;11.10;99.90
5200;DHT22;2619;47.868;11.892;2023-05-14T01:17:13;11.20;99.90
5200;DHT22;2619;47.868;11.892;2023-05-14T01:19:41;11.20;99.90
5200;DHT22;2619;47.868;11.892;2023-05-14T01:22:08;11.20;99.90
5200;DHT22;2619;47.868;11.892;2023-05-14T01:24:34;11.20;99.90
5200;DHT22;2619;47.868;11.892;2023-05-14T01:27:16;11.20;99.90
5200;DHT22;2619;47.868;11.892;2023-05-14T01:29:45;11.20;99.90
5200;DHT22;2619;47.868;11.892;2023-05-14T01:32:14;11.20;99.90
5200;DHT22;2619;47.868;11.892;2023-05-14T01:34:42;11.20;99.90
5200;DHT22;2619;47.868;11.892;2023-05-14T01:37:10;11.20;99.90
5200;DHT22;2619;47.868;11.892;2023-05-14T01:39:37;11.20;99.90
5200;DHT22;2619;47.868;11.892;2023-05-14T01:42:05;11.30;99.90
5200;DHT22;2619;47.868;11.892;2023-05-14T01:44:32;11.40;99.90
5200;DHT22;2619;47.868;11.892;2023-05-14T01:46:57;11.40;99.90
5200;DHT22;2619;47.868;11.892;2023-05-14T01:49:23;11.30;99.90
5200;DHT22;2619;47.868;11.892;2023-05-14T01:51:49;11.30;99.90
5200;DHT22;2619;47.868;11.892;2023-05-14T01:54:14;11.30;99.90
5200;DHT22;2619;47.868;11.892;2023-05-14T01:56:40;11.30;99.90
5200;DHT22;2619;47.868;11.892;2023-05-14T01:59:05;11.30;99.90
5200;DHT22;2619;47.868;11.892;2023-05-14T02:01:31;11.30;99.90
5200;DHT22;2619;47.868;11.892;2023-05-14T02:03:58;11.30;99.90
5200;DHT22;2619;47.868;11.892;2023-05-14T02:06:24;11.30;99.90
5200;DHT22;2619;47.868;11.892;2023-05-14T02:08:49;11.20;99.90
5200;DHT22;2619;47.868;11.892;2023-05-14T02:11:15;11.30;99.90
5200;DHT22;2619;47.868;11.892;2023-05-14T02:13:41;11.20;99.90
5200;DHT22;2619;47.868;11.892;2023-05-14T02:16:07;11.20;99.90
5200;DHT22;2619;47.868;11.892;2023-05-14T02:18:33;11.20;99.90
5200;DHT22;2619;47.868;11.892;2023-05-14T02:20:59;11.20;99.90
5200;DHT22;2619;47.868;11.892;2023-05-14T02:23:25;11.10;99.90
5200;DHT22;2619;47.868;11.892;2023-05-14T02:25:50;11.10;99.90
5200;DHT22;2619;47.868;11.892;2023-05-14T02:28:16;11.00;99.90
5200;DHT22;2619;47.868;11.892;2023-05-14T02:30:41;11.00;99.90
5200;DHT22;2619;47.868;11.892;2023-05-14T02:33:07;11.00;99.90
5200;DHT22;2619;47.868;11.892;2023-05-14T02:35:32;11.00;99.90
5200;DHT22;2619;47.868;11.892;2023-05-14T02:37:58;11.00;99.90
5200;DHT22;2619;47.868;11.892;2023-05-14T02:40:24;11.00;99.90
5200;DHT22;2619;47.868;11.892;2023-05-14T02:42:49;11.00;99.90
5200;DHT22;2619;47.868;11.892;2023-05-14T02:45:15;11.00;99.90
5200;DHT22;2619;47.868;11.892;2023-05-14T02:47:41;11.00;99.90
5200;DHT22;2619;47.868;11.892;2023-05-14T02:50:08;11.00;99.90
5200;DHT22;2619;47.868;11.892;2023-05-14T02:52:33;11.10;99.90
5200;DHT22;2619;47.868;11.892;2023-05-14T02:55:00;11.10;99.90
5200;DHT22;2619;47.868;11.892;2023-05-14T02:57:25;11.00;99.90
5200;DHT22;2619;47.868;11.892;2023-05-14T02:59:51;11.00;99.90
5200;DHT22;2619;47.868;11.892;2023-05-14T03:02:16;11.00;99.90
5200;DHT22;2619;47.868;11.892;2023-05-14T03:04:42;10.90;99.90
5200;DHT22;2619;47.868;11.892;2023-05-14T03:07:07;11.00;99.90
5200;DHT22;2619;47.868;11.892;2023-05-14T03:09:33;11.00;99.90
5200;DHT22;2619;47.868;11.892;2023-05-14T03:11:59;11.00;99.90
5200;DHT22;2619;47.868;11.892;2023-05-14T03:14:25;11.00;99.90
5200;DHT22;2619;47.868;11.892;2023-05-14T03:16:50;10.90;99.90
5200;DHT22;2619;47.868;11.892;2023-05-14T03:19:16;10.90;99.90
5200;DHT22;2619;47.868;11.892;2023-05-14T03:21:41;10.90;99.90
5200;DHT22;2619;47.868;11.892;2023-05-14T03:24:07;10.90;99.90
5200;DHT22;2619;47.868;11.892;2023-05-14T03:26:33;10.80;99.90
5200;DHT22;2619;47.868;11.892;2023-05-14T03:28:58;10.80;99.90
5200;DHT22;2619;47.868;11.892;2023-05-14T03:31:24;10.90;99.90
5200;DHT22;2619;47.868;11.892;2023-05-14T03:33:50;10.70;99.90
5200;DHT22;2619;47.868;11.892;2023-05-14T03:36:15;10.70;99.90
5200;DHT22;2619;47.868;11.892;2023-05-14T03:38:41;10.60;99.90
5200;DHT22;2619;47.868;11.892;2023-05-14T03:41:07;10.60;99.90
5200;DHT22;2619;47.868;11.892;2023-05-14T03:43:32;10.50;99.90
5200;DHT22;2619;47.868;11.892;2023-05-14T03:45:58;10.50;99.90
5200;DHT22;2619;47.868;11.892;2023-05-14T03:48:24;10.50;99.90
5200;DHT22;2619;47.868;11.892;2023-05-14T03:50:49;10.50;99.90
5200;DHT22;2619;47.868;11.892;2023-05-14T03:53:15;10.50;99.90
5200;DHT22;2619;47.868;11.892;2023-05-14T03:55:41;10.50;99.90
5200;DHT22;2619;47.868;11.892;2023-05-14T03:58:07;10.50;99.90
5200;DHT22;2619;47.868;11.892;2023-05-14T04:00:41;10.50;99.90
5200;DHT22;2619;47.868;11.892;2023-05-14T04:03:07;10.60;99.90
5200;DHT22;2619;47.868;11.892;2023-05-14T04:05:33;10.60;99.90
5200;DHT22;2619;47.868;11.892;2023-05-14T04:07:59;10.60;99.90
5200;DHT22;2619;47.868;11.892;2023-05-14T04:10:25;10.50;99.90
5200;DHT22;2619;47.868;11.892;2023-05-14T04:12:50;10.50;99.90
5200;DHT22;2619;47.868;11.892;2023-05-14T04:15:16;10.50;99.90
5200;DHT22;2619;47.868;11.892;2023-05-14T04:17:42;10.50;99.90
5200;DHT22;2619;47.868;11.892;2023-05-14T04:20:08;10.40;99.90
5200;DHT22;2619;47.868;11.892;2023-05-14T04:22:34;10.40;99.90
5200;DHT22;2619;47.868;11.892;2023-05-14T04:41:28;9.80;99.90
5200;DHT22;2619;47.868;11.892;2023-05-14T04:43:55;9.80;99.90
5200;DHT22;2619;47.868;11.892;2023-05-14T04:46:21;9.80;99.90
5200;DHT22;2619;47.868;11.892;2023-05-14T04:51:27;9.90;99.90
5200;DHT22;2619;47.868;11.892;2023-05-14T04:53:53;9.90;99.90
5200;DHT22;2619;47.868;11.892;2023-05-14T04:56:18;9.90;99.90
5200;DHT22;2619;47.868;11.892;2023-05-14T04:58:44;9.90;99.90
5200;DHT22;2619;47.868;11.892;2023-05-14T05:01:09;10.00;99.90
5200;DHT22;2619;47.868;11.892;2023-05-14T05:03:35;10.00;99.90
5200;DHT22;2619;47.868;11.892;2023-05-14T05:06:01;10.00;99.90
5200;DHT22;2619;47.868;11.892;2023-05-14T05:08:26;10.00;99.90
5200;DHT22;2619;47.868;11.892;2023-05-14T05:10:52;9.90;99.90
5200;DHT22;2619;47.868;11.892;2023-05-14T05:13:17;9.90;99.90
5200;DHT22;2619;47.868;11.892;2023-05-14T05:15:43;10.00;99.90
5200;DHT22;2619;47.868;11.892;2023-05-14T05:18:08;10.00;99.90
5200;DHT22;2619;47.868;11.892;2023-05-14T05:20:34;10.00;99.90
5200;DHT22;2619;47.868;11.892;2023-05-14T05:23:00;10.00;99.90
5200;DHT22;2619;47.868;11.892;2023-05-14T05:25:26;10.00;99.90
5200;DHT22;2619;47.868;11.892;2023-05-14T05:27:51;10.00;99.90
5200;DHT22;2619;47.868;11.892;2023-05-14T05:30:17;10.10;99.90
5200;DHT22;2619;47.868;11.892;2023-05-14T05:32:43;10.20;99.90
5200;DHT22;2619;47.868;11.892;2023-05-14T05:35:09;10.20;99.90
5200;DHT22;2619;47.868;11.892;2023-05-14T05:37:34;10.30;99.90
5200;DHT22;2619;47.868;11.892;2023-05-14T05:40:00;10.30;99.90
5200;DHT22;2619;47.868;11.892;2023-05-14T05:42:26;10.30;99.90
5200;DHT22;2619;47.868;11.892;2023-05-14T05:44:51;10.30;99.90
5200;DHT22;2619;47.868;11.892;2023-05-14T05:47:17;10.30;99.90
5200;DHT22;2619;47.868;11.892;2023-05-14T05:49:42;10.30;99.90
5200;DHT22;2619;47.868;11.892;2023-05-14T05:52:08;10.40;99.90
5200;DHT22;2619;47.868;11.892;2023-05-14T05:54:34;10.40;99.90
5200;DHT22;2619;47.868;11.892;2023-05-14T05:57:00;10.40;99.90
5200;DHT22;2619;47.868;11.892;2023-05-14T05:59:25;10.50;99.90
5200;DHT22;2619;47.868;11.892;2023-05-14T06:01:51;10.50;99.90
5200;DHT22;2619;47.868;11.892;2023-05-14T06:04:17;10.50;99.90
5200;DHT22;2619;47.868;11.892;2023-05-14T06:06:42;10.40;99.90
5200;DHT22;2619;47.868;11.892;2023-05-14T06:09:08;10.50;99.90
5200;DHT22;2619;47.868;11.892;2023-05-14T06:11:34;10.50;99.90
5200;DHT22;2619;47.868;11.892;2023-05-14T06:14:00;10.50;99.90
5200;DHT22;2619;47.868;11.892;2023-05-14T06:16:25;10.60;99.90
5200;DHT22;2619;47.868;11.892;2023-05-14T06:18:51;10.60;99.90
5200;DHT22;2619;47.868;11.892;2023-05-14T06:21:17;10.60;99.90
5200;DHT22;2619;47.868;11.892;2023-05-14T06:23:43;10.60;99.90
5200;DHT22;2619;47.868;11.892;2023-05-14T06:26:09;10.70;99.90
5200;DHT22;2619;47.868;11.892;2023-05-14T06:28:34;10.70;99.90
5200;DHT22;2619;47.868;11.892;2023-05-14T06:31:00;10.80;99.90
5200;DHT22;2619;47.868;11.892;2023-05-14T06:33:26;10.90;99.90
5200;DHT22;2619;47.868;11.892;2023-05-14T06:36:02;11.00;99.90
5200;DHT22;2619;47.868;11.892;2023-05-14T06:38:28;11.10;99.90
5200;DHT22;2619;47.868;11.892;2023-05-14T06:40:54;11.30;99.90
5200;DHT22;2619;47.868;11.892;2023-05-14T06:43:19;11.30;99.90
5200;DHT22;2619;47.868;11.892;2023-05-14T06:45:49;11.50;99.90
5200;DHT22;2619;47.868;11.892;2023-05-14T06:48:16;11.80;99.90
5200;DHT22;2619;47.868;11.892;2023-05-14T06:50:43;12.00;99.90
5200;DHT22;2619;47.868;11.892;2023-05-14T06:53:09;12.30;99.90
5200;DHT22;2619;47.868;11.892;2023-05-14T06:55:34;12.80;99.90
5200;DHT22;2619;47.868;11.892;2023-05-14T06:58:00;13.20;99.90
5200;DHT22;2619;47.868;11.892;2023-05-14T07:00:26;13.50;99.90
5200;DHT22;2619;47.868;11.892;2023-05-14T07:02:52;13.90;99.90
5200;DHT22;2619;47.868;11.892;2023-05-14T07:05:17;14.20;99.90
5200;DHT22;2619;47.868;11.892;2023-05-14T07:07:43;14.20;99.90
5200;DHT22;2619;47.868;11.892;2023-05-14T07:10:09;14.30;99.90
5200;DHT22;2619;47.868;11.892;2023-05-14T07:12:35;14.40;99.90
5200;DHT22;2619;47.868;11.892;2023-05-14T07:15:00;14.50;99.90
5200;DHT22;2619;47.868;11.892;2023-05-14T07:17:26;14.70;99.90
5200;DHT22;2619;47.868;11.892;2023-05-14T07:19:51;14.70;99.90
5200;DHT22;2619;47.868;11.892;2023-05-14T07:22:19;14.80;99.90
5200;DHT22;2619;47.868;11.892;2023-05-14T07:24:45;14.50;99.90
5200;DHT22;2619;47.868;11.892;2023-05-14T07:27:11;14.40;99.90
5200;DHT22;2619;47.868;11.892;2023-05-14T07:29:36;14.20;99.90
5200;DHT22;2619;47.868;11.892;2023-05-14T07:32:02;14.00;99.90
5200;DHT22;2619;47.868;11.892;2023-05-14T07:34:28;14.00;99.90
5200;DHT22;2619;47.868;11.892;2023-05-14T07:36:53;14.10;99.90
5200;DHT22;2619;47.868;11.892;2023-05-14T07:39:19;13.90;99.90
5200;DHT22;2619;47.868;11.892;2023-05-14T07:41:45;13.90;99.90
5200;DHT22;2619;47.868;11.892;2023-05-14T07:44:10;13.80;99.90
5200;DHT22;2619;47.868;11.892;2023-05-14T07:46:36;13.70;99.90
5200;DHT22;2619;47.868;11.892;2023-05-14T07:49:01;13.80;99.90
5200;DHT22;2619;47.868;11.892;2023-05-14T07:51:27;13.80;99.90
5200;DHT22;2619;47.868;11.892;2023-05-14T07:53:53;13.90;99.90
5200;DHT22;2619;47.868;11.892;2023-05-14T07:56:20;13.90;99.90
5200;DHT22;2619;47.868;11.892;2023-05-14T07:58:46;13.70;99.90
5200;DHT22;2619;47.868;11.892;2023-05-14T08:01:12;13.60;99.90
5200;DHT22;2619;47.868;11.892;2023-05-14T08:03:37;13.40;99.90
5200;DHT22;2619;47.868;11.892;2023-05-14T08:06:03;13.30;99.90
5200;DHT22;2619;47.868;11.892;2023-05-14T08:08:29;13.20;99.90
5200;DHT22;2619;47.868;11.892;2023-05-14T08:10:55;13.40;99.90
5200;DHT22;2619;47.868;11.892;2023-05-14T08:13:20;13.50;99.90
5200;DHT22;2619;47.868;11.892;2023-05-14T08:15:46;13.70;99.90
5200;DHT22;2619;47.868;11.892;2023-05-14T08:18:11;13.90;99.90
5200;DHT22;2619;47.868;11.892;2023-05-14T08:20:37;14.10;99.90
5200;DHT22;2619;47.868;11.892;2023-05-14T08:23:02;14.30;99.90
5200;DHT22;2619;47.868;11.892;2023-05-14T08:25:28;14.50;99.90
5200;DHT22;2619;47.868;11.892;2023-05-14T08:27:54;14.40;99.90
5200;DHT22;2619;47.868;11.892;2023-05-14T08:30:20;14.30;99.90
5200;DHT22;2619;47.868;11.892;2023-05-14T08:32:46;14.40;99.90
5200;DHT22;2619;47.868;11.892;2023-05-14T08:35:11;14.40;99.90
5200;DHT22;2619;47.868;11.892;2023-05-14T08:37:37;14.20;99.90
5200;DHT22;2619;47.868;11.892;2023-05-14T08:40:03;14.20;99.90
5200;DHT22;2619;47.868;11.892;2023-05-14T08:42:29;14.30;99.90
5200;DHT22;2619;47.868;11.892;2023-05-14T08:45:05;14.40;99.90
5200;DHT22;2619;47.868;11.892;2023-05-14T08:47:33;14.40;99.90
5200;DHT22;2619;47.868;11.892;2023-05-14T08:50:06;14.40;99.90
5200;DHT22;2619;47.868;11.892;2023-05-14T08:52:33;14.50;99.90
5200;DHT22;2619;47.868;11.892;2023-05-14T08:55:01;14.50;99.90
5200;DHT22;2619;47.868;11.892;2023-05-14T08:57:29;14.40;99.90
5200;DHT22;2619;47.868;11.892;2023-05-14T08:59:56;14.30;99.90
5200;DHT22;2619;47.868;11.892;2023-05-14T09:02:26;14.00;99.90
5200;DHT22;2619;47.868;11.892;2023-05-14T09:04:55;14.00;99.90
5200;DHT22;2619;47.868;11.892;2023-05-14T09:07:22;13.80;99.90
5200;DHT22;2619;47.868;11.892;2023-05-14T09:09:48;13.60;99.90
5200;DHT22;2619;47.868;11.892;2023-05-14T09:12:14;13.50;99.90
5200;DHT22;2619;47.868;11.892;2023-05-14T09:14:40;13.50;99.90
5200;DHT22;2619;47.868;11.892;2023-05-14T09:17:06;13.40;99.90
5200;DHT22;2619;47.868;11.892;2023-05-14T09:19:32;13.40;99.90
5200;DHT22;2619;47.868;11.892;2023-05-14T09:21:58;13.30;99.90
5200;DHT22;2619;47.868;11.892;2023-05-14T09:24:26;13.20;99.90
5200;DHT22;2619;47.868;11.892;2023-05-14T09:26:57;13.10;99.90
5200;DHT22;2619;47.868;11.892;2023-05-14T09:29:27;13.10;99.90
5200;DHT22;2619;47.868;11.892;2023-05-14T09:31:54;13.10;99.90
5200;DHT22;2619;47.868;11.892;2023-05-14T09:34:28;13.40;99.90
5200;DHT22;2619;47.868;11.892;2023-05-14T09:36:59;13.70;99.90
5200;DHT22;2619;47.868;11.892;2023-05-14T09:39:26;13.70;99.90
5200;DHT22;2619;47.868;11.892;2023-05-14T09:41:52;13.70;99.90
5200;DHT22;2619;47.868;11.892;2023-05-14T09:44:18;13.90;99.90
5200;DHT22;2619;47.868;11.892;2023-05-14T09:46:45;13.90;99.90
5200;DHT22;2619;47.868;11.892;2023-05-14T09:49:11;13.80;99.90
5200;DHT22;2619;47.868;11.892;2023-05-14T09:51:37;13.70;99.90
5200;DHT22;2619;47.868;11.892;2023-05-14T09:54:04;13.80;99.90
5200;DHT22;2619;47.868;11.892;2023-05-14T09:56:33;13.80;99.90
5200;DHT22;2619;47.868;11.892;2023-05-14T09:58:59;14.00;99.90
5200;DHT22;2619;47.868;11.892;2023-05-14T10:01:25;14.20;99.90
5200;DHT22;2619;47.868;11.892;2023-05-14T10:03:53;14.40;99.90
5200;DHT22;2619;47.868;11.892;2023-05-14T10:06:24;14.40;99.90
5200;DHT22;2619;47.868;11.892;2023-05-14T10:08:53;14.50;99.90
5200;DHT22;2619;47.868;11.892;2023-05-14T10:11:23;14.60;99.90
5200;DHT22;2619;47.868;11.892;2023-05-14T10:16:38;15.20;99.90
5200;DHT22;2619;47.868;11.892;2023-05-14T10:19:08;15.40;99.90
5200;DHT22;2619;47.868;11.892;2023-05-14T10:21:40;15.60;99.90
5200;DHT22;2619;47.868;11.892;2023-05-14T10:24:06;15.80;99.90
5200;DHT22;2619;47.868;11.892;2023-05-14T10:26:36;15.80;99.90
5200;DHT22;2619;47.868;11.892;2023-05-14T10:29:09;16.00;99.90
5200;DHT22;2619;47.868;11.892;2023-05-14T10:31:49;16.20;99.90
5200;DHT22;2619;47.868;11.892;2023-05-14T10:42:17;17.30;99.90
5200;DHT22;2619;47.868;11.892;2023-05-14T10:44:58;17.60;99.90
5200;DHT22;2619;47.868;11.892;2023-05-14T10:47:30;17.70;99.90
5200;DHT22;2619;47.868;11.892;2023-05-14T10:49:58;17.70;99.90
5200;DHT22;2619;47.868;11.892;2023-05-14T10:52:25;17.60;99.90
5200;DHT22;2619;47.868;11.892;2023-05-14T10:54:55;17.40;99.90
5200;DHT22;2619;47.868;11.892;2023-05-14T10:57:22;17.20;99.90
5200;DHT22;2619;47.868;11.892;2023-05-14T10:59:50;16.80;99.90
5200;DHT22;2619;47.868;11.892;2023-05-14T11:07:37;16.10;99.90
5200;DHT22;2619;47.868;11.892;2023-05-14T11:10:05;15.70;99.90
5200;DHT22;2619;47.868;11.892;2023-05-14T11:12:32;15.50;99.90
5200;DHT22;2619;47.868;11.892;2023-05-14T11:14:59;15.40;99.90
5200;DHT22;2619;47.868;11.892;2023-05-14T11:17:27;15.30;99.90
5200;DHT22;2619;47.868;11.892;2023-05-14T11:19:53;15.30;99.90
5200;DHT22;2619;47.868;11.892;2023-05-14T11:22:19;15.30;99.90
5200;DHT22;2619;47.868;11.892;2023-05-14T11:24:45;15.70;99.90
5200;DHT22;2619;47.868;11.892;2023-05-14T11:27:11;16.00;99.90
5200;DHT22;2619;47.868;11.892;2023-05-14T11:29:37;16.40;99.90
5200;DHT22;2619;47.868;11.892;2023-05-14T11:32:06;16.60;99.90
5200;DHT22;2619;47.868;11.892;2023-05-14T11:34:32;16.70;99.90
5200;DHT22;2619;47.868;11.892;2023-05-14T11:37:02;16.80;99.90
5200;DHT22;2619;47.868;11.892;2023-05-14T11:39:29;16.90;99.90
5200;DHT22;2619;47.868;11.892;2023-05-14T11:41:56;17.20;99.90
5200;DHT22;2619;47.868;11.892;2023-05-14T11:44:23;17.30;99.90
5200;DHT22;2619;47.868;11.892;2023-05-14T11:46:56;17.30;99.90
5200;DHT22;2619;47.868;11.892;2023-05-14T11:49:23;17.50;99.90
5200;DHT22;2619;47.868;11.892;2023-05-14T11:51:49;17.60;99.90
5200;DHT22;2619;47.868;11.892;2023-05-14T11:54:15;17.50;99.90
5200;DHT22;2619;47.868;11.892;2023-05-14T11:56:40;17.30;99.90
5200;DHT22;2619;47.868;11.892;2023-05-14T11:59:06;17.60;99.90
5200;DHT22;2619;47.868;11.892;2023-05-14T12:01:37;17.90;99.90
5200;DHT22;2619;47.868;11.892;2023-05-14T12:04:03;17.70;99.90
5200;DHT22;2619;47.868;11.892;2023-05-14T12:06:30;17.90;99.90
5200;DHT22;2619;47.868;11.892;2023-05-14T12:08:56;17.80;99.90
5200;DHT22;2619;47.868;11.892;2023-05-14T12:11:22;17.80;99.90
5200;DHT22;2619;47.868;11.892;2023-05-14T12:13:47;17.80;99.90
5200;DHT22;2619;47.868;11.892;2023-05-14T12:16:13;17.80;99.90
5200;DHT22;2619;47.868;11.892;2023-05-14T12:18:39;17.80;99.90
5200;DHT22;2619;47.868;11.892;2023-05-14T12:21:04;17.80;99.90
5200;DHT22;2619;47.868;11.892;2023-05-14T12:23:32;17.80;99.90
5200;DHT22;2619;47.868;11.892;2023-05-14T12:26:05;17.80;99.90
5200;DHT22;2619;47.868;11.892;2023-05-14T12:28:32;18.00;99.90
5200;DHT22;2619;47.868;11.892;2023-05-14T12:30:59;18.30;99.90
5200;DHT22;2619;47.868;11.892;2023-05-14T12:33:27;18.20;99.90
5200;DHT22;2619;47.868;11.892;2023-05-14T12:35:53;18.40;99.90
5200;DHT22;2619;47.868;11.892;2023-05-14T12:38:21;18.30;99.90
5200;DHT22;2619;47.868;11.892;2023-05-14T12:40:47;18.30;99.90
5200;DHT22;2619;47.868;11.892;2023-05-14T12:43:12;18.30;99.90
5200;DHT22;2619;47.868;11.892;2023-05-14T12:45:38;18.30;99.90
5200;DHT22;2619;47.868;11.892;2023-05-14T12:48:05;18.40;99.90
5200;DHT22;2619;47.868;11.892;2023-05-14T12:50:30;18.50;99.90
5200;DHT22;2619;47.868;11.892;2023-05-14T12:52:56;18.70;99.90
5200;DHT22;2619;47.868;11.892;2023-05-14T12:55:22;18.50;99.90
5200;DHT22;2619;47.868;11.892;2023-05-14T12:57:47;18.10;99.90
5200;DHT22;2619;47.868;11.892;2023-05-14T13:00:14;18.00;99.90
5200;DHT22;2619;47.868;11.892;2023-05-14T13:02:39;18.20;99.90
5200;DHT22;2619;47.868;11.892;2023-05-14T13:05:05;18.60;99.90
5200;DHT22;2619;47.868;11.892;2023-05-14T13:07:31;18.80;99.90
5200;DHT22;2619;47.868;11.892;2023-05-14T13:09:56;19.10;99.90
5200;DHT22;2619;47.868;11.892;2023-05-14T13:12:22;19.00;99.90
5200;DHT22;2619;47.868;11.892;2023-05-14T13:14:48;19.10;99.90
5200;DHT22;2619;47.868;11.892;2023-05-14T13:17:14;19.00;99.90
5200;DHT22;2619;47.868;11.892;2023-05-14T13:19:40;18.50;99.90
5200;DHT22;2619;47.868;11.892;2023-05-14T13:22:05;18.40;99.90
5200;DHT22;2619;47.868;11.892;2023-05-14T13:24:31;18.50;99.90
5200;DHT22;2619;47.868;11.892;2023-05-14T13:26:57;18.40;99.90
5200;DHT22;2619;47.868;11.892;2023-05-14T13:29:22;18.40;99.90
5200;DHT22;2619;47.868;11.892;2023-05-14T13:31:48;18.30;99.90
5200;DHT22;2619;47.868;11.892;2023-05-14T13:34:13;18.10;99.90
5200;DHT22;2619;47.868;11.892;2023-05-14T13:36:40;17.70;99.90
5200;DHT22;2619;47.868;11.892;2023-05-14T13:39:08;17.50;99.90
5200;DHT22;2619;47.868;11.892;2023-05-14T13:41:34;17.40;99.90
5200;DHT22;2619;47.868;11.892;2023-05-14T13:44:02;17.50;99.90
5200;DHT22;2619;47.868;11.892;2023-05-14T13:46:28;17.60;99.90
5200;DHT22;2619;47.868;11.892;2023-05-14T13:48:53;17.80;99.90
5200;DHT22;2619;47.868;11.892;2023-05-14T13:51:19;18.10;99.90
5200;DHT22;2619;47.868;11.892;2023-05-14T13:53:44;18.20;99.90
5200;DHT22;2619;47.868;11.892;2023-05-14T13:56:10;18.30;99.90
5200;DHT22;2619;47.868;11.892;2023-05-14T13:58:36;18.50;99.90
5200;DHT22;2619;47.868;11.892;2023-05-14T14:01:01;18.50;99.90
5200;DHT22;2619;47.868;11.892;2023-05-14T14:03:27;18.70;99.90
5200;DHT22;2619;47.868;11.892;2023-05-14T14:05:53;18.80;99.90
5200;DHT22;2619;47.868;11.892;2023-05-14T14:08:18;19.20;99.90
5200;DHT22;2619;47.868;11.892;2023-05-14T14:10:44;19.00;99.90
5200;DHT22;2619;47.868;11.892;2023-05-14T14:13:10;19.20;99.90
5200;DHT22;2619;47.868;11.892;2023-05-14T14:15:36;19.40;99.90
5200;DHT22;2619;47.868;11.892;2023-05-14T14:18:01;19.60;99.90
5200;DHT22;2619;47.868;11.892;2023-05-14T14:20:27;19.50;99.90
5200;DHT22;2619;47.868;11.892;2023-05-14T14:22:53;19.40;99.90
5200;DHT22;2619;47.868;11.892;2023-05-14T14:25:19;19.20;99.90
5200;DHT22;2619;47.868;11.892;2023-05-14T14:27:45;19.20;99.90
5200;DHT22;2619;47.868;11.892;2023-05-14T14:30:11;19.20;99.90
5200;DHT22;2619;47.868;11.892;2023-05-14T14:32:47;18.90;99.90
5200;DHT22;2619;47.868;11.892;2023-05-14T14:35:15;18.80;99.90
5200;DHT22;2619;47.868;11.892;2023-05-14T14:37:41;18.60;99.90
5200;DHT22;2619;47.868;11.892;2023-05-14T14:40:09;18.30;99.90
5200;DHT22;2619;47.868;11.892;2023-05-14T14:42:36;18.30;99.90
5200;DHT22;2619;47.868;11.892;2023-05-14T14:45:03;18.20;99.90
5200;DHT22;2619;47.868;11.892;2023-05-14T14:47:29;18.20;99.90
5200;DHT22;2619;47.868;11.892;2023-05-14T14:49:56;17.90;99.90
5200;DHT22;2619;47.868;11.892;2023-05-14T14:52:22;17.80;99.90
5200;DHT22;2619;47.868;11.892;2023-05-14T14:54:48;17.90;99.90
5200;DHT22;2619;47.868;11.892;2023-05-14T14:57:14;18.20;99.90
5200;DHT22;2619;47.868;11.892;2023-05-14T14:59:39;18.50;99.90
5200;DHT22;2619;47.868;11.892;2023-05-14T15:02:07;18.60;99.90
5200;DHT22;2619;47.868;11.892;2023-05-14T15:04:33;18.50;99.90
5200;DHT22;2619;47.868;11.892;2023-05-14T15:07:02;18.30;99.90
5200;DHT22;2619;47.868;11.892;2023-05-14T15:09:28;18.40;99.90
5200;DHT22;2619;47.868;11.892;2023-05-14T15:11:54;18.40;99.90
5200;DHT22;2619;47.868;11.892;2023-05-14T15:14:20;18.70;99.90
5200;DHT22;2619;47.868;11.892;2023-05-14T15:16:45;18.60;99.90
5200;DHT22;2619;47.868;11.892;2023-05-14T15:19:11;18.70;99.90
5200;DHT22;2619;47.868;11.892;2023-05-14T15:21:36;18.50;99.90
5200;DHT22;2619;47.868;11.892;2023-05-14T15:24:03;18.30;99.90
5200;DHT22;2619;47.868;11.892;2023-05-14T15:26:29;18.40;99.90
5200;DHT22;2619;47.868;11.892;2023-05-14T15:28:55;18.70;99.90
5200;DHT22;2619;47.868;11.892;2023-05-14T15:31:22;18.70;99.90
5200;DHT22;2619;47.868;11.892;2023-05-14T15:33:51;18.50;99.90
5200;DHT22;2619;47.868;11.892;2023-05-14T15:36:18;18.70;99.90
5200;DHT22;2619;47.868;11.892;2023-05-14T15:38:44;18.80;99.90
5200;DHT22;2619;47.868;11.892;2023-05-14T15:41:09;18.70;99.90
5200;DHT22;2619;47.868;11.892;2023-05-14T15:43:35;18.70;99.90
5200;DHT22;2619;47.868;11.892;2023-05-14T15:46:00;18.60;99.90
5200;DHT22;2619;47.868;11.892;2023-05-14T15:48:26;18.20;99.90
5200;DHT22;2619;47.868;11.892;2023-05-14T15:50:52;17.80;99.90
5200;DHT22;2619;47.868;11.892;2023-05-14T15:53:17;16.90;99.90
5200;DHT22;2619;47.868;11.892;2023-05-14T15:55:43;15.90;99.90
5200;DHT22;2619;47.868;11.892;2023-05-14T15:58:09;15.30;99.90
5200;DHT22;2619;47.868;11.892;2023-05-14T16:00:34;14.80;99.90
5200;DHT22;2619;47.868;11.892;2023-05-14T16:03:00;14.30;99.90
5200;DHT22;2619;47.868;11.892;2023-05-14T16:05:26;13.60;99.90
5200;DHT22;2619;47.868;11.892;2023-05-14T16:07:51;13.20;99.90
5200;DHT22;2619;47.868;11.892;2023-05-14T16:10:18;13.00;99.90
5200;DHT22;2619;47.868;11.892;2023-05-14T16:12:44;12.60;99.90
5200;DHT22;2619;47.868;11.892;2023-05-14T16:15:10;12.20;99.90
5200;DHT22;2619;47.868;11.892;2023-05-14T16:17:35;12.00;99.90
5200;DHT22;2619;47.868;11.892;2023-05-14T16:20:01;11.80;99.90
5200;DHT22;2619;47.868;11.892;2023-05-14T16:22:29;11.50;99.90
5200;DHT22;2619;47.868;11.892;2023-05-14T16:24:57;11.40;99.90